createdAt,value
2023-03-08T00:01:17.799Z,99788.41
2023-03-08T00:03:45.734Z,99791.47
2023-03-08T00:06:23.899Z,99791.66
2023-03-08T00:08:54.962Z,99784.13
2023-03-08T00:11:21.923Z,99775.97
2023-03-08T00:13:48.908Z,99783.53
2023-03-08T00:16:16.318Z,99786.63
2023-03-08T00:18:43.415Z,99780.91
2023-03-08T00:21:18.155Z,99776.00
2023-03-08T00:23:46.501Z,99774.94
2023-03-08T00:26:14.306Z,99766.84
2023-03-08T00:28:41.687Z,99773.59
2023-03-08T00:31:12.690Z,99762.59
2023-03-08T00:33:41.231Z,99761.78
2023-03-08T00:36:17.000Z,99756.81
2023-03-08T00:38:44.667Z,99744.88
2023-03-08T00:41:11.844Z,99737.78
2023-03-08T00:43:39.337Z,99732.88
2023-03-08T00:46:06.565Z,99728.81
2023-03-08T00:48:34.289Z,99724.75
2023-03-08T00:51:01.545Z,99716.50
2023-03-08T00:53:28.512Z,99706.41
2023-03-08T00:55:59.172Z,99712.66
2023-03-08T00:58:28.158Z,99701.69
2023-03-08T01:00:55.640Z,99702.28
2023-03-08T01:03:23.586Z,99696.19
2023-03-08T01:05:55.409Z,99700.41
2023-03-08T01:08:24.104Z,99690.47
2023-03-08T01:10:58.050Z,99693.06
2023-03-08T01:13:27.930Z,99683.50
2023-03-08T01:15:55.277Z,99685.78
2023-03-08T01:18:22.363Z,99687.53
2023-03-08T01:21:16.105Z,99686.38
2023-03-08T01:23:43.280Z,99679.00
2023-03-08T01:26:16.943Z,99663.31
2023-03-08T01:28:44.841Z,99664.06
2023-03-08T01:31:24.857Z,99656.31
2023-03-08T01:33:52.495Z,99664.53
2023-03-08T01:36:22.976Z,99652.81
2023-03-08T01:38:50.680Z,99644.97
2023-03-08T01:41:26.088Z,99632.25
2023-03-08T01:43:53.537Z,99616.22
2023-03-08T01:46:29.030Z,99619.34
2023-03-08T01:49:09.471Z,99616.88
2023-03-08T01:52:10.344Z,99602.16
2023-03-08T01:54:39.463Z,99617.75
2023-03-08T01:57:14.090Z,99607.09
2023-03-08T01:59:41.685Z,99600.19
2023-03-08T02:02:09.101Z,99608.53
2023-03-08T02:04:36.839Z,99596.72
2023-03-08T02:07:03.871Z,99593.03
2023-03-08T02:09:30.959Z,99576.47
2023-03-08T02:12:03.119Z,99562.53
2023-03-08T02:14:30.292Z,99561.41
2023-03-08T02:16:57.407Z,99553.81
2023-03-08T02:19:34.286Z,99541.91
2023-03-08T02:22:12.741Z,99546.72
2023-03-08T02:24:39.775Z,99544.78
2023-03-08T02:27:25.176Z,99540.06
2023-03-08T02:29:53.161Z,99529.09
2023-03-08T02:32:20.503Z,99520.59
2023-03-08T02:34:47.458Z,99515.28
2023-03-08T02:37:14.447Z,99517.66
2023-03-08T02:39:41.510Z,99501.94
2023-03-08T02:42:08.686Z,99499.06
2023-03-08T02:44:35.689Z,99505.09
2023-03-08T02:47:02.648Z,99504.47
2023-03-08T02:49:29.696Z,99489.59
2023-03-08T02:51:56.648Z,99489.34
2023-03-08T02:54:23.801Z,99475.56
2023-03-08T02:56:50.751Z,99476.81
2023-03-08T02:59:17.693Z,99475.91
2023-03-08T03:01:44.930Z,99473.66
2023-03-08T03:04:11.988Z,99465.03
2023-03-08T03:06:39.347Z,99466.38
2023-03-08T03:09:08.371Z,99457.66
2023-03-08T03:11:35.490Z,99450.59
2023-03-08T03:14:03.231Z,99444.03
2023-03-08T03:16:30.226Z,99434.63
2023-03-08T03:18:57.261Z,99429.50
2023-03-08T03:21:24.905Z,99426.16
2023-03-08T03:23:52.009Z,99415.94
2023-03-08T03:26:21.784Z,99397.47
2023-03-08T03:28:50.237Z,99409.44
2023-03-08T03:31:20.912Z,99402.47
2023-03-08T03:33:48.716Z,99396.56
2023-03-08T03:36:20.444Z,99388.72
2023-03-08T03:38:48.450Z,99382.63
2023-03-08T03:41:19.213Z,99381.91
2023-03-08T03:43:47.039Z,99369.91
2023-03-08T03:46:17.277Z,99361.13
2023-03-08T03:48:45.176Z,99348.56
2023-03-08T03:51:18.970Z,99350.97
2023-03-08T03:53:46.880Z,99340.56
2023-03-08T03:56:20.653Z,99335.94
2023-03-08T03:58:48.572Z,99333.38
2023-03-08T04:01:28.739Z,99335.81
2023-03-08T04:03:57.839Z,99332.41
2023-03-08T04:06:31.449Z,99328.88
2023-03-08T04:09:05.854Z,99332.59
2023-03-08T04:11:36.690Z,99333.81
2023-03-08T04:14:04.611Z,99324.09
2023-03-08T04:16:37.992Z,99317.41
2023-03-08T04:19:12.121Z,99312.06
2023-03-08T04:21:39.825Z,99308.69
2023-03-08T04:24:07.562Z,99306.78
2023-03-08T04:26:34.685Z,99306.06
2023-03-08T04:29:05.688Z,99302.00
2023-03-08T04:31:35.235Z,99290.84
2023-03-08T04:34:03.703Z,99274.88
2023-03-08T04:36:31.297Z,99269.38
2023-03-08T04:38:58.469Z,99267.44
2023-03-08T04:41:25.788Z,99258.31
2023-03-08T04:43:56.479Z,99252.31
2023-03-08T04:46:27.196Z,99233.00
2023-03-08T04:48:55.972Z,99230.56
2023-03-08T04:51:27.344Z,99220.06
2023-03-08T04:53:54.474Z,99201.66
2023-03-08T04:56:21.882Z,99193.16
2023-03-08T04:58:49.394Z,99184.53
2023-03-08T05:01:19.596Z,99165.78
2023-03-08T05:03:47.902Z,99173.56
2023-03-08T05:06:15.162Z,99165.22
2023-03-08T05:08:42.438Z,99158.44
2023-03-08T05:11:09.804Z,99159.97
2023-03-08T05:13:38.616Z,99157.34
2023-03-08T05:16:08.119Z,99155.53
2023-03-08T05:18:35.710Z,99152.03
2023-03-08T05:21:09.985Z,99143.63
2023-03-08T05:23:37.574Z,99128.97
2023-03-08T05:26:07.221Z,99124.00
2023-03-08T05:28:37.145Z,99124.81
2023-03-08T05:31:13.333Z,99111.19
2023-03-08T05:33:41.976Z,99116.09
2023-03-08T05:36:10.805Z,99113.97
2023-03-08T05:38:37.836Z,99122.97
2023-03-08T05:41:08.330Z,99111.75
2023-03-08T05:43:35.780Z,99126.81
2023-03-08T05:46:10.304Z,99133.97
2023-03-08T05:48:37.604Z,99135.78
2023-03-08T05:51:12.879Z,99123.72
2023-03-08T05:53:40.185Z,99115.22
2023-03-08T05:56:19.603Z,99114.00
2023-03-08T05:58:48.337Z,99112.47
2023-03-08T06:01:27.472Z,99105.41
2023-03-08T06:03:57.720Z,99108.22
2023-03-08T06:06:27.183Z,99102.03
2023-03-08T06:08:56.362Z,99091.88
2023-03-08T06:11:24.019Z,99081.19
2023-03-08T06:13:51.194Z,99070.00
2023-03-08T06:16:18.311Z,99067.13
2023-03-08T06:18:45.340Z,99070.22
2023-03-08T06:21:18.365Z,99063.25
2023-03-08T06:23:46.745Z,99058.00
2023-03-08T06:26:15.406Z,99054.81
2023-03-08T06:28:42.695Z,99039.03
2023-03-08T06:31:14.829Z,99046.28
2023-03-08T06:33:41.883Z,99032.41
2023-03-08T06:36:14.382Z,99016.00
2023-03-08T06:38:42.212Z,99012.16
2023-03-08T06:41:11.066Z,99013.53
2023-03-08T06:43:38.589Z,99024.31
2023-03-08T06:46:14.860Z,99012.84
2023-03-08T06:48:42.181Z,99007.91
2023-03-08T06:51:09.640Z,98990.25
2023-03-08T06:53:38.170Z,98981.38
2023-03-08T06:56:07.641Z,98964.22
2023-03-08T06:58:36.970Z,98977.47
2023-03-08T07:01:05.947Z,98984.22
2023-03-08T07:03:33.967Z,98968.03
2023-03-08T07:06:03.670Z,98979.00
2023-03-08T07:08:31.193Z,98968.41
2023-03-08T07:10:58.873Z,98970.59
2023-03-08T07:13:26.096Z,98965.03
2023-03-08T07:15:53.399Z,98954.53
2023-03-08T07:18:21.649Z,98974.00
2023-03-08T07:20:57.974Z,98948.47
2023-03-08T07:23:26.339Z,98949.03
2023-03-08T07:25:53.476Z,98940.50
2023-03-08T07:28:20.540Z,98950.22
2023-03-08T07:30:53.104Z,98955.34
2023-03-08T07:33:21.900Z,98967.84
2023-03-08T07:35:49.313Z,98952.50
2023-03-08T07:38:17.014Z,98970.06
2023-03-08T07:40:44.397Z,98955.41
2023-03-08T07:43:11.926Z,98948.44
2023-03-08T07:45:39.782Z,98935.38
2023-03-08T07:48:07.717Z,98939.44
2023-03-08T07:50:35.012Z,98950.28
2023-03-08T07:53:02.065Z,98950.78
2023-03-08T07:55:29.167Z,98958.50
2023-03-08T07:57:56.315Z,98954.66
2023-03-08T08:00:23.579Z,98955.75
2023-03-08T08:02:54.038Z,98956.13
2023-03-08T08:05:22.284Z,98946.41
2023-03-08T08:07:49.833Z,98954.34
2023-03-08T08:10:17.341Z,98949.69
2023-03-08T08:12:44.317Z,98945.50
2023-03-08T08:15:11.753Z,98935.09
2023-03-08T08:17:38.787Z,98933.75
2023-03-08T08:20:08.232Z,98924.78
2023-03-08T08:22:37.038Z,98930.09
2023-03-08T08:25:08.718Z,98916.66
2023-03-08T08:27:36.335Z,98919.41
2023-03-08T08:30:06.339Z,98925.88
2023-03-08T08:32:35.436Z,98904.28
2023-03-08T08:35:03.214Z,98907.28
2023-03-08T08:37:32.640Z,98910.34
2023-03-08T08:40:00.518Z,98905.72
2023-03-08T08:42:27.601Z,98912.53
2023-03-08T08:44:55.131Z,98909.25
2023-03-08T08:47:22.132Z,98907.16
2023-03-08T08:49:49.073Z,98915.09
2023-03-08T08:52:16.104Z,98910.81
2023-03-08T08:54:43.126Z,98903.66
2023-03-08T08:57:10.152Z,98906.38
2023-03-08T08:59:37.187Z,98918.59
2023-03-08T09:02:04.280Z,98912.00
2023-03-08T09:04:31.420Z,98907.69
2023-03-08T09:06:58.424Z,98904.88
2023-03-08T09:09:26.913Z,98900.69
2023-03-08T09:11:55.792Z,98909.03
2023-03-08T09:14:23.593Z,98917.56
2023-03-08T09:16:50.715Z,98900.97
2023-03-08T09:19:17.931Z,98894.88
2023-03-08T09:21:44.936Z,98886.88
2023-03-08T09:24:13.266Z,98898.56
2023-03-08T09:26:40.359Z,98909.03
2023-03-08T09:29:07.915Z,98889.94
2023-03-08T09:31:38.083Z,98891.16
2023-03-08T09:34:09.012Z,98880.00
2023-03-08T09:36:39.835Z,98880.66
2023-03-08T09:39:10.000Z,98884.94
2023-03-08T09:41:50.990Z,98866.56
2023-03-08T09:45:01.007Z,98871.44
2023-03-08T09:47:56.804Z,98876.25
2023-03-08T09:50:57.317Z,98863.47
2023-03-08T09:53:28.915Z,98873.63
2023-03-08T09:56:00.906Z,98878.44
2023-03-08T09:58:53.154Z,98866.75
2023-03-08T10:01:22.680Z,98848.38
2023-03-08T10:04:27.839Z,98849.53
2023-03-08T10:07:24.851Z,98849.72
2023-03-08T10:10:44.490Z,98855.84
2023-03-08T10:13:35.621Z,98849.09
2023-03-08T10:16:24.234Z,98848.69
2023-03-08T10:19:04.705Z,98838.50
2023-03-08T10:21:36.657Z,98855.25
2023-03-08T10:24:20.506Z,98851.63
2023-03-08T10:26:47.468Z,98856.22
2023-03-08T10:29:14.927Z,98856.28
2023-03-08T10:31:44.353Z,98848.31
2023-03-08T10:34:21.479Z,98845.41
2023-03-08T10:37:04.555Z,98844.69
2023-03-08T10:39:31.534Z,98841.00
2023-03-08T10:42:02.595Z,98830.44
2023-03-08T10:44:42.846Z,98833.66
2023-03-08T10:47:33.700Z,98831.53
2023-03-08T10:50:09.888Z,98827.28
2023-03-08T10:52:36.992Z,98836.84
2023-03-08T10:55:18.847Z,98827.22
2023-03-08T10:58:00.760Z,98832.69
2023-03-08T11:00:30.556Z,98836.91
2023-03-08T11:03:14.005Z,98835.31
2023-03-08T11:05:53.411Z,98847.56
2023-03-08T11:08:51.120Z,98849.53
2023-03-08T11:11:18.086Z,98853.94
2023-03-08T11:13:48.165Z,98867.38
2023-03-08T11:16:42.331Z,98867.97
2023-03-08T11:19:26.566Z,98870.59
2023-03-08T11:22:44.608Z,98873.81
2023-03-08T11:25:32.730Z,98875.53
2023-03-08T11:28:30.344Z,98868.84
2023-03-08T11:31:15.144Z,98852.81
2023-03-08T11:34:12.851Z,98856.94
2023-03-08T11:36:59.032Z,98860.16
2023-03-08T11:40:20.391Z,98857.88
2023-03-08T11:43:09.391Z,98865.50
2023-03-08T11:45:57.842Z,98856.13
2023-03-08T11:49:01.601Z,98869.44
2023-03-08T11:51:44.114Z,98862.91
2023-03-08T11:54:34.995Z,98857.28
2023-03-08T11:57:09.145Z,98853.66
2023-03-08T11:59:49.402Z,98853.81
2023-03-08T12:02:21.094Z,98832.13
2023-03-08T12:04:53.959Z,98841.44
2023-03-08T12:07:36.549Z,98827.59
2023-03-08T12:10:30.616Z,98844.38
2023-03-08T12:13:42.410Z,98859.63
2023-03-08T12:16:43.244Z,98848.06
2023-03-08T12:19:37.213Z,98854.50
2023-03-08T12:22:33.682Z,98853.81
2023-03-08T12:25:09.160Z,98851.16
2023-03-08T12:27:36.057Z,98848.56
2023-03-08T12:30:36.486Z,98844.16
2023-03-08T12:33:05.723Z,98843.69
2023-03-08T12:35:36.269Z,98851.63
2023-03-08T12:38:20.272Z,98850.31
2023-03-08T12:40:50.904Z,98852.97
2023-03-08T12:43:20.826Z,98856.34
2023-03-08T12:46:01.255Z,98867.25
2023-03-08T12:48:35.635Z,98842.34
2023-03-08T12:51:32.444Z,98846.28
2023-03-08T12:54:04.819Z,98836.94
2023-03-08T12:56:37.968Z,98856.81
2023-03-08T12:59:10.939Z,98853.22
2023-03-08T13:01:44.899Z,98845.69
2023-03-08T13:04:41.811Z,98840.97
2023-03-08T13:07:09.405Z,98834.97
2023-03-08T13:09:42.314Z,98836.06
2023-03-08T13:12:12.581Z,98846.31
2023-03-08T13:15:19.432Z,98848.88
2023-03-08T13:17:58.457Z,98842.25
2023-03-08T13:20:41.793Z,98844.63
2023-03-08T13:23:26.314Z,98850.09
2023-03-08T13:26:49.356Z,98853.84
2023-03-08T13:29:20.528Z,98854.75
2023-03-08T13:31:48.922Z,98855.16
2023-03-08T13:34:32.900Z,98847.66
2023-03-08T13:37:00.230Z,98853.69
2023-03-08T13:39:30.328Z,98861.19
2023-03-08T13:42:12.132Z,98863.88
2023-03-08T13:44:39.304Z,98852.16
2023-03-08T13:47:23.898Z,98860.41
2023-03-08T13:49:53.958Z,98853.03
2023-03-08T13:52:29.951Z,98850.91
2023-03-08T13:55:01.839Z,98861.97
2023-03-08T13:57:40.022Z,98855.66
2023-03-08T14:00:30.062Z,98852.78
2023-03-08T14:02:58.944Z,98848.88
2023-03-08T14:05:33.223Z,98848.00
2023-03-08T14:08:04.513Z,98845.28
2023-03-08T14:10:48.854Z,98845.19
2023-03-08T14:13:24.884Z,98852.09
2023-03-08T14:16:05.299Z,98849.50
2023-03-08T14:18:43.436Z,98851.16
2023-03-08T14:21:30.541Z,98847.41
2023-03-08T14:24:00.742Z,98863.59
2023-03-08T14:26:34.833Z,98863.13
2023-03-08T14:29:34.991Z,98859.69
2023-03-08T14:32:11.291Z,98853.28
2023-03-08T14:34:48.048Z,98845.22
2023-03-08T14:37:28.520Z,98856.13
2023-03-08T14:40:19.987Z,98855.34
2023-03-08T14:42:51.703Z,98834.91
2023-03-08T14:45:24.031Z,98841.88
2023-03-08T14:47:58.277Z,98833.59
2023-03-08T14:50:33.933Z,98841.13
2023-03-08T14:53:02.626Z,98834.91
2023-03-08T14:55:33.569Z,98831.25
2023-03-08T14:58:04.289Z,98838.31
2023-03-08T15:00:31.992Z,98833.00
2023-03-08T15:03:00.443Z,98820.88
2023-03-08T15:05:30.045Z,98823.59
2023-03-08T15:07:59.693Z,98830.78
2023-03-08T15:10:37.754Z,98834.59
2023-03-08T15:13:17.881Z,98822.56
2023-03-08T15:15:45.736Z,98830.13
2023-03-08T15:18:12.986Z,98833.78
2023-03-08T15:20:44.830Z,98831.19
2023-03-08T15:23:20.269Z,98815.78
2023-03-08T15:25:47.482Z,98826.66
2023-03-08T15:28:17.723Z,98831.00
2023-03-08T15:30:45.368Z,98815.53
2023-03-08T15:33:12.324Z,98818.16
2023-03-08T15:35:40.748Z,98811.06
2023-03-08T15:38:08.068Z,98807.06
2023-03-08T15:40:35.555Z,98806.25
2023-03-08T15:43:02.805Z,98799.41
2023-03-08T15:45:29.782Z,98812.84
2023-03-08T15:48:01.632Z,98815.50
2023-03-08T15:50:30.029Z,98827.09
2023-03-08T15:52:58.167Z,98826.44
2023-03-08T15:55:27.951Z,98840.09
2023-03-08T15:57:55.392Z,98829.97
2023-03-08T16:00:23.965Z,98835.94
2023-03-08T16:02:53.658Z,98824.13
2023-03-08T16:05:23.446Z,98820.34
2023-03-08T16:08:03.146Z,98806.13
2023-03-08T16:10:40.410Z,98800.66
2023-03-08T16:13:08.485Z,98792.50
2023-03-08T16:15:35.587Z,98780.09
2023-03-08T16:18:02.533Z,98771.94
2023-03-08T16:20:29.476Z,98768.00
2023-03-08T16:22:56.504Z,98764.78
2023-03-08T16:25:23.753Z,98754.59
2023-03-08T16:27:51.622Z,98758.50
2023-03-08T16:30:19.273Z,98763.34
2023-03-08T16:32:46.261Z,98761.06
2023-03-08T16:35:13.329Z,98749.09
2023-03-08T16:37:40.327Z,98747.47
2023-03-08T16:40:08.357Z,98747.75
2023-03-08T16:42:35.439Z,98739.28
2023-03-08T16:45:03.792Z,98740.97
2023-03-08T16:47:32.393Z,98736.03
2023-03-08T16:50:01.192Z,98741.53
2023-03-08T16:52:28.733Z,98746.81
2023-03-08T16:54:57.310Z,98738.78
2023-03-08T16:57:24.440Z,98755.25
2023-03-08T16:59:51.381Z,98745.44
2023-03-08T17:02:21.436Z,98743.25
2023-03-08T17:04:50.055Z,98739.28
2023-03-08T17:07:17.744Z,98742.72
2023-03-08T17:09:46.366Z,98720.50
2023-03-08T17:12:13.749Z,98723.06
2023-03-08T17:14:41.309Z,98741.03
2023-03-08T17:17:10.357Z,98733.66
2023-03-08T17:19:39.801Z,98743.34
2023-03-08T17:22:09.129Z,98740.72
2023-03-08T17:24:36.211Z,98744.63
2023-03-08T17:27:04.635Z,98743.13
2023-03-08T17:29:31.640Z,98744.13
2023-03-08T17:31:58.642Z,98750.13
2023-03-08T17:34:25.677Z,98742.09
2023-03-08T17:36:53.464Z,98738.56
2023-03-08T17:39:20.796Z,98746.53
2023-03-08T17:41:47.895Z,98748.63
2023-03-08T17:44:15.188Z,98739.25
2023-03-08T17:46:42.453Z,98734.63
2023-03-08T17:49:11.993Z,98745.44
2023-03-08T17:51:39.072Z,98745.31
2023-03-08T17:54:07.485Z,98734.91
2023-03-08T17:56:36.624Z,98749.78
2023-03-08T17:59:03.741Z,98745.13
2023-03-08T18:01:31.819Z,98743.56
2023-03-08T18:03:59.744Z,98752.50
2023-03-08T18:06:31.377Z,98744.63
2023-03-08T18:09:01.139Z,98738.88
2023-03-08T18:11:28.491Z,98746.56
2023-03-08T18:13:56.237Z,98749.41
2023-03-08T18:16:24.245Z,98750.69
2023-03-08T18:18:51.760Z,98749.78
2023-03-08T18:21:21.025Z,98755.63
2023-03-08T18:23:48.346Z,98758.16
2023-03-08T18:26:17.881Z,98758.91
2023-03-08T18:28:45.249Z,98753.44
2023-03-08T18:31:18.249Z,98752.09
2023-03-08T18:33:46.219Z,98747.25
2023-03-08T18:36:13.740Z,98743.78
2023-03-08T18:38:42.263Z,98747.88
2023-03-08T18:41:26.119Z,98749.53
2023-03-08T18:43:57.707Z,98738.59
2023-03-08T18:46:28.929Z,98732.78
2023-03-08T18:49:04.040Z,98718.72
2023-03-08T18:51:32.506Z,98712.31
2023-03-08T18:54:00.530Z,98723.53
2023-03-08T18:56:29.294Z,98720.19
2023-03-08T18:59:03.975Z,98712.56
2023-03-08T19:01:31.910Z,98717.56
2023-03-08T19:04:01.497Z,98720.88
2023-03-08T19:06:28.424Z,98726.56
2023-03-08T19:08:56.754Z,98702.09
2023-03-08T19:11:26.996Z,98709.41
2023-03-08T19:13:54.812Z,98703.34
2023-03-08T19:16:28.651Z,98691.09
2023-03-08T19:19:03.249Z,98697.63
2023-03-08T19:21:49.581Z,98701.75
2023-03-08T19:24:20.283Z,98708.41
2023-03-08T19:26:51.167Z,98712.31
2023-03-08T19:29:28.371Z,98713.78
2023-03-08T19:31:58.979Z,98705.41
2023-03-08T19:34:36.080Z,98703.72
2023-03-08T19:37:05.035Z,98705.91
2023-03-08T19:39:35.026Z,98712.63
2023-03-08T19:42:06.148Z,98701.53
2023-03-08T19:44:34.160Z,98696.25
2023-03-08T19:47:01.659Z,98693.63
2023-03-08T19:49:32.959Z,98699.69
2023-03-08T19:52:03.759Z,98704.31
2023-03-08T19:54:31.770Z,98697.84
2023-03-08T19:56:59.796Z,98686.94
2023-03-08T19:59:27.239Z,98688.97
2023-03-08T20:01:56.113Z,98685.81
2023-03-08T20:04:24.737Z,98678.59
2023-03-08T20:06:52.173Z,98675.38
2023-03-08T20:09:23.950Z,98675.50
2023-03-08T20:11:57.491Z,98681.06
2023-03-08T20:14:29.705Z,98681.78
2023-03-08T20:17:02.470Z,98675.16
2023-03-08T20:19:31.898Z,98683.63
2023-03-08T20:21:59.054Z,98670.38
2023-03-08T20:24:26.028Z,98682.03
2023-03-08T20:26:53.198Z,98668.19
2023-03-08T20:29:20.721Z,98681.03
2023-03-08T20:31:48.383Z,98675.28
2023-03-08T20:34:16.860Z,98683.97
2023-03-08T20:36:44.115Z,98683.97
2023-03-08T20:39:11.288Z,98686.63
2023-03-08T20:41:38.266Z,98688.81
2023-03-08T20:44:05.733Z,98686.16
2023-03-08T20:46:33.713Z,98678.81
2023-03-08T20:49:01.880Z,98669.22
2023-03-08T20:51:29.215Z,98666.22
2023-03-08T20:53:57.154Z,98660.28
2023-03-08T20:56:25.679Z,98661.66
2023-03-08T20:58:56.544Z,98660.28
2023-03-08T21:01:28.840Z,98656.94
2023-03-08T21:03:55.996Z,98651.97
2023-03-08T21:06:30.311Z,98656.03
2023-03-08T21:09:00.376Z,98644.31
2023-03-08T21:11:28.539Z,98644.84
2023-03-08T21:13:55.730Z,98627.66
2023-03-08T21:16:25.703Z,98639.66
2023-03-08T21:18:56.229Z,98634.69
2023-03-08T21:21:28.131Z,98637.88
2023-03-08T21:23:58.048Z,98638.38
2023-03-08T21:26:28.058Z,98654.19
2023-03-08T21:29:05.035Z,98641.66
2023-03-08T21:31:36.102Z,98645.69
2023-03-08T21:34:05.809Z,98650.28
2023-03-08T21:36:34.122Z,98655.50
2023-03-08T21:39:01.155Z,98643.75
2023-03-08T21:41:31.642Z,98647.78
2023-03-08T21:43:59.705Z,98649.78
2023-03-08T21:46:27.407Z,98656.91
2023-03-08T21:48:56.482Z,98655.78
2023-03-08T21:51:23.881Z,98658.19
2023-03-08T21:53:51.244Z,98666.63
2023-03-08T21:56:19.671Z,98691.31
2023-03-08T21:58:46.715Z,98669.22
2023-03-08T22:01:30.348Z,98676.06
2023-03-08T22:03:59.002Z,98666.81
2023-03-08T22:06:26.092Z,98678.38
2023-03-08T22:08:53.310Z,98676.28
2023-03-08T22:11:21.538Z,98673.09
2023-03-08T22:13:58.212Z,98680.00
2023-03-08T22:16:26.744Z,98682.72
2023-03-08T22:18:59.361Z,98674.00
2023-03-08T22:21:27.055Z,98676.75
2023-03-08T22:23:56.948Z,98690.72
2023-03-08T22:26:25.602Z,98674.56
2023-03-08T22:28:54.610Z,98679.03
2023-03-08T22:31:24.196Z,98695.09
2023-03-08T22:33:51.670Z,98690.59
2023-03-08T22:36:21.046Z,98696.38
2023-03-08T22:38:48.668Z,98710.22
2023-03-08T22:41:21.173Z,98696.16
2023-03-08T22:43:49.692Z,98690.44
2023-03-08T22:46:23.444Z,98682.72
2023-03-08T22:48:51.331Z,98678.47
2023-03-08T22:51:20.906Z,98683.34
2023-03-08T22:53:48.214Z,98694.66
2023-03-08T22:56:26.485Z,98682.84
2023-03-08T22:58:53.587Z,98680.56
2023-03-08T23:01:23.273Z,98669.69
2023-03-08T23:03:55.065Z,98649.59
2023-03-08T23:06:23.365Z,98654.75
2023-03-08T23:08:50.627Z,98654.72
2023-03-08T23:11:17.777Z,98647.78
2023-03-08T23:13:44.836Z,98652.22
2023-03-08T23:16:16.985Z,98644.47
2023-03-08T23:18:48.120Z,98659.78
2023-03-08T23:21:17.008Z,98668.03
2023-03-08T23:23:45.133Z,98665.56
2023-03-08T23:26:16.412Z,98682.03
2023-03-08T23:28:43.898Z,98682.16
2023-03-08T23:31:19.781Z,98685.13
2023-03-08T23:33:50.352Z,98676.47
2023-03-08T23:36:20.216Z,98682.09
2023-03-08T23:38:47.585Z,98694.56
2023-03-08T23:41:15.970Z,98691.22
2023-03-08T23:43:43.474Z,98699.06
2023-03-08T23:46:17.670Z,98696.03
2023-03-08T23:48:46.328Z,98706.31
2023-03-08T23:51:17.821Z,98720.78
2023-03-08T23:53:45.696Z,98728.59
2023-03-08T23:56:30.919Z,98752.03
2023-03-08T23:59:04.259Z,98767.84
